createdAt,value
2018-12-17T00:04:02.455Z,95394.00
2018-12-17T00:09:30.624Z,95400.00
2018-12-17T00:14:58.700Z,95398.00
2018-12-17T00:20:26.770Z,95397.00
2018-12-17T00:25:54.960Z,95394.00
2018-12-17T00:31:23.028Z,95407.00
2018-12-17T00:36:51.098Z,95415.00
2018-12-17T00:42:19.202Z,95417.00
2018-12-17T00:47:47.295Z,95421.00
2018-12-17T00:53:15.369Z,95416.00
2018-12-17T00:58:43.442Z,95414.00
2018-12-17T01:04:11.513Z,95404.00
2018-12-17T01:09:39.578Z,95408.00
2018-12-17T01:15:07.851Z,95418.00
2018-12-17T01:20:35.989Z,95424.00
2018-12-17T01:26:04.170Z,95423.00
2018-12-17T01:31:32.254Z,95419.00
2018-12-17T01:37:00.334Z,95424.00
2018-12-17T01:42:28.443Z,95443.00
2018-12-17T01:47:56.531Z,95451.00
2018-12-17T01:53:25.553Z,95447.00
2018-12-17T01:58:53.692Z,95441.00
2018-12-17T02:04:21.771Z,95433.00
2018-12-17T02:09:49.842Z,95439.00
2018-12-17T02:15:17.926Z,95437.00
2018-12-17T02:20:46.264Z,95459.00
2018-12-17T02:26:14.508Z,95446.00
2018-12-17T02:31:42.764Z,95463.00
2018-12-17T02:37:11.072Z,95470.00
2018-12-17T02:42:39.138Z,95474.00
2018-12-17T02:48:07.210Z,95467.00
2018-12-17T02:53:35.295Z,95472.00
2018-12-17T02:59:03.502Z,95478.00
2018-12-17T03:04:31.582Z,95489.00
2018-12-17T03:09:59.681Z,95487.00
2018-12-17T03:15:29.114Z,95485.00
2018-12-17T03:20:57.337Z,95486.00
2018-12-17T03:26:25.452Z,95486.00
2018-12-17T03:31:53.613Z,95492.00
2018-12-17T03:37:21.690Z,95511.00
2018-12-17T03:42:49.771Z,95515.00
2018-12-17T03:48:17.954Z,95519.00
2018-12-17T03:53:46.025Z,95523.00
2018-12-17T03:59:14.107Z,95537.00
2018-12-17T04:04:42.760Z,95532.00
2018-12-17T04:10:10.902Z,95540.00
2018-12-17T04:15:39.372Z,95553.00
2018-12-17T04:21:07.466Z,95558.00
2018-12-17T04:26:36.492Z,95559.00
2018-12-17T04:32:04.650Z,95574.00
2018-12-17T04:37:32.750Z,95588.00
2018-12-17T04:43:00.854Z,95593.00
2018-12-17T04:48:28.937Z,95600.00
2018-12-17T04:53:57.033Z,95607.00
2018-12-17T04:59:25.126Z,95619.00
2018-12-17T05:04:53.199Z,95609.00
2018-12-17T05:10:21.290Z,95620.00
2018-12-17T05:15:49.402Z,95626.00
2018-12-17T05:21:17.522Z,95624.00
2018-12-17T05:26:45.610Z,95633.00
2018-12-17T05:32:13.714Z,95654.00
2018-12-17T05:37:41.790Z,95649.00
2018-12-17T05:43:11.118Z,95657.00
2018-12-17T05:48:39.196Z,95662.00
2018-12-17T05:54:08.025Z,95672.00
2018-12-17T05:59:37.115Z,95679.00
2018-12-17T06:05:05.828Z,95687.00
2018-12-17T06:10:33.897Z,95707.00
2018-12-17T06:16:02.024Z,95707.00
2018-12-17T06:21:30.148Z,95704.00
2018-12-17T06:26:58.243Z,95725.00
2018-12-17T06:32:26.322Z,95744.00
2018-12-17T06:37:55.630Z,95738.00
2018-12-17T06:43:23.724Z,95748.00
2018-12-17T06:48:51.850Z,95756.00
2018-12-17T06:54:20.579Z,95753.00
2018-12-17T06:59:48.658Z,95762.00
2018-12-17T07:05:16.747Z,95769.00
2018-12-17T07:10:44.890Z,95776.00
2018-12-17T07:16:13.119Z,95800.00
2018-12-17T07:21:41.203Z,95807.00
2018-12-17T07:27:09.288Z,95815.00
2018-12-17T07:32:37.362Z,95822.00
2018-12-17T07:38:05.535Z,95830.00
2018-12-17T07:43:33.607Z,95847.00
2018-12-17T07:49:01.694Z,95855.00
2018-12-17T07:54:29.783Z,95871.00
2018-12-17T07:59:57.894Z,95885.00
2018-12-17T08:05:25.996Z,95890.00
2018-12-17T08:10:54.078Z,95903.00
2018-12-17T08:16:22.174Z,95902.00
2018-12-17T08:21:50.309Z,95916.00
2018-12-17T08:27:18.455Z,95925.00
2018-12-17T08:32:46.532Z,95923.00
2018-12-17T08:38:14.624Z,95944.00
2018-12-17T08:43:42.702Z,95965.00
2018-12-17T08:49:10.983Z,95961.00
2018-12-17T08:54:39.134Z,95984.00
2018-12-17T09:00:11.226Z,95995.00
2018-12-17T09:05:39.625Z,95994.00
2018-12-17T09:11:07.789Z,95995.00
2018-12-17T09:16:35.878Z,96010.00
2018-12-17T09:22:04.193Z,96007.00
2018-12-17T09:27:32.283Z,96003.00
2018-12-17T09:33:00.379Z,96013.00
2018-12-17T09:38:28.469Z,96019.00
2018-12-17T09:43:56.541Z,96023.00
2018-12-17T09:49:25.635Z,96010.00
2018-12-17T09:54:53.709Z,96006.00
2018-12-17T10:00:25.386Z,96006.00
2018-12-17T10:05:51.915Z,96009.00
2018-12-17T10:11:19.984Z,95997.00
2018-12-17T10:16:48.052Z,96013.00
2018-12-17T10:22:16.131Z,96013.00
2018-12-17T10:27:44.203Z,96014.00
2018-12-17T10:33:12.282Z,96017.00
2018-12-17T10:38:40.369Z,96026.00
2018-12-17T10:44:08.422Z,96023.00
2018-12-17T10:49:36.524Z,96018.00
2018-12-17T10:55:05.802Z,96030.00
2018-12-17T11:00:39.562Z,96029.00
2018-12-17T11:06:09.237Z,96041.00
2018-12-17T11:11:37.310Z,96050.00
2018-12-17T11:17:05.518Z,96038.00
2018-12-17T11:22:33.589Z,96043.00
2018-12-17T11:28:01.674Z,96042.00
2018-12-17T11:33:29.749Z,96040.00
2018-12-17T11:38:57.814Z,96035.00
2018-12-17T11:44:27.802Z,96049.00
2018-12-17T11:49:55.870Z,96051.00
2018-12-17T11:55:23.990Z,96059.00
2018-12-17T12:00:54.267Z,96056.00
2018-12-17T12:06:22.434Z,96067.00
2018-12-17T12:11:50.656Z,96067.00
2018-12-17T12:17:18.723Z,96066.00
2018-12-17T12:22:46.823Z,96078.00
2018-12-17T12:28:14.882Z,96085.00
2018-12-17T12:33:42.975Z,96079.00
2018-12-17T12:39:11.078Z,96090.00
2018-12-17T12:44:39.144Z,96100.00
2018-12-17T12:50:08.999Z,96100.00
2018-12-17T12:55:37.181Z,96107.00
2018-12-17T13:01:07.758Z,96121.00
2018-12-17T13:06:36.333Z,96114.00
2018-12-17T13:12:04.554Z,96112.00
2018-12-17T13:17:32.694Z,96109.00
2018-12-17T13:23:00.896Z,96132.00
2018-12-17T13:28:29.914Z,96141.00
2018-12-17T13:33:58.020Z,96138.00
2018-12-17T13:39:26.079Z,96150.00
2018-12-17T13:44:54.406Z,96144.00
2018-12-17T13:50:30.278Z,96153.00
2018-12-17T13:55:58.089Z,96166.00
2018-12-17T14:01:26.155Z,96171.00
2018-12-17T14:06:54.322Z,96185.00
2018-12-17T14:12:22.386Z,96191.00
2018-12-17T14:17:50.443Z,96187.00
2018-12-17T14:23:18.520Z,96195.00
2018-12-17T14:28:46.635Z,96206.00
2018-12-17T14:34:14.688Z,96219.00
2018-12-17T14:39:42.836Z,96218.00
2018-12-17T14:45:10.970Z,96218.00
2018-12-17T14:50:39.069Z,96219.00
2018-12-17T14:56:08.251Z,96221.00
2018-12-17T15:01:36.321Z,96238.00
2018-12-17T15:07:04.383Z,96234.00
2018-12-17T15:12:32.493Z,96242.00
2018-12-17T15:18:00.553Z,96255.00
2018-12-17T15:23:28.696Z,96273.00
2018-12-17T15:28:56.794Z,96283.00
2018-12-17T15:34:24.917Z,96281.00
2018-12-17T15:39:53.071Z,96286.00
2018-12-17T15:45:21.242Z,96296.00
2018-12-17T15:50:49.326Z,96312.00
2018-12-17T15:56:17.486Z,96315.00
2018-12-17T16:01:49.975Z,96312.00
2018-12-17T16:07:15.669Z,96317.00
2018-12-17T16:12:43.728Z,96325.00
2018-12-17T16:18:12.714Z,96337.00
2018-12-17T16:23:40.901Z,96335.00
2018-12-17T16:29:10.055Z,96333.00
2018-12-17T16:34:38.230Z,96352.00
2018-12-17T16:40:07.176Z,96351.00
2018-12-17T16:45:35.291Z,96362.00
2018-12-17T16:51:03.363Z,96366.00
2018-12-17T16:56:31.829Z,96366.00
2018-12-17T17:02:04.429Z,96386.00
2018-12-17T17:07:29.954Z,96377.00
2018-12-17T17:12:58.020Z,96385.00
2018-12-17T17:18:26.145Z,96393.00
2018-12-17T17:23:54.213Z,96400.00
2018-12-17T17:29:22.520Z,96400.00
2018-12-17T17:34:50.585Z,96406.00
2018-12-17T17:40:18.650Z,96415.00
2018-12-17T17:45:47.319Z,96412.00
2018-12-17T17:51:15.383Z,96420.00
2018-12-17T17:56:43.475Z,96429.00
2018-12-17T18:02:18.741Z,96430.00
2018-12-17T18:07:44.430Z,96433.00
2018-12-17T18:13:12.545Z,96444.00
2018-12-17T18:18:40.608Z,96455.00
2018-12-17T18:24:08.663Z,96478.00
2018-12-17T18:29:39.715Z,96477.00
2018-12-17T18:35:07.975Z,96498.00
2018-12-17T18:40:36.284Z,96508.00
2018-12-17T18:46:04.541Z,96518.00
2018-12-17T18:51:32.766Z,96517.00
2018-12-17T18:57:00.952Z,96528.00
2018-12-17T19:02:33.099Z,96528.00
2018-12-17T19:07:59.364Z,96540.00
2018-12-17T19:13:27.458Z,96536.00
2018-12-17T19:18:55.526Z,96540.00
2018-12-17T19:24:23.578Z,96545.00
2018-12-17T19:29:51.746Z,96558.00
2018-12-17T19:35:19.834Z,96561.00
2018-12-17T19:40:47.927Z,96564.00
2018-12-17T19:46:16.036Z,96560.00
2018-12-17T19:51:44.204Z,96572.00
2018-12-17T19:57:12.275Z,96573.00
2018-12-17T20:02:46.808Z,96573.00
2018-12-17T20:08:10.419Z,96576.00
2018-12-17T20:13:39.002Z,96579.00
2018-12-17T20:19:07.296Z,96582.00
2018-12-17T20:24:35.423Z,96583.00
2018-12-17T20:30:05.036Z,96586.00
2018-12-17T20:35:33.110Z,96586.00
2018-12-17T20:41:04.192Z,96597.00
2018-12-17T20:46:32.637Z,96601.00
2018-12-17T20:52:00.762Z,96616.00
2018-12-17T20:57:29.235Z,96606.00
2018-12-17T21:03:00.472Z,96622.00
2018-12-17T21:08:27.539Z,96616.00
2018-12-17T21:13:55.724Z,96621.00
2018-12-17T21:19:23.818Z,96636.00
2018-12-17T21:24:51.892Z,96635.00
2018-12-17T21:30:20.172Z,96629.00
2018-12-17T21:35:48.384Z,96639.00
2018-12-17T21:41:16.481Z,96637.00
2018-12-17T21:46:46.285Z,96653.00
2018-12-17T21:52:14.412Z,96653.00
2018-12-17T21:57:42.479Z,96650.00
2018-12-17T22:03:13.411Z,96647.00
2018-12-17T22:08:41.660Z,96645.00
2018-12-17T22:14:09.770Z,96656.00
2018-12-17T22:19:37.995Z,96650.00
2018-12-17T22:25:06.300Z,96656.00
2018-12-17T22:30:34.368Z,96652.00
2018-12-17T22:36:02.441Z,96649.00
2018-12-17T22:41:30.549Z,96646.00
2018-12-17T22:46:58.608Z,96652.00
2018-12-17T22:52:26.723Z,96644.00
2018-12-17T22:57:54.791Z,96648.00
2018-12-17T23:03:26.327Z,96645.00
2018-12-17T23:09:03.818Z,96651.00
2018-12-17T23:14:52.701Z,96657.00
2018-12-17T23:20:21.266Z,96646.00
2018-12-17T23:25:49.508Z,96646.00
2018-12-17T23:31:17.754Z,96642.00
2018-12-17T23:36:45.981Z,96639.00
2018-12-17T23:42:14.202Z,96642.00
2018-12-17T23:47:42.446Z,96640.00
2018-12-17T23:53:10.699Z,96641.00
2018-12-17T23:58:38.923Z,96631.00
